Time;durP1;ratioP1;P1;durP2;ratioP2;P2;SDS_P1;SDS_P2;PMS_P1;PMS_P2;Temp;Humidity;BMP_temperature;BMP_pressure;BME280_temperature;BME280_humidity;BME280_pressure;Samples;Min_cycle;Max_cycle;Signal;HPM_P1;HPM_P2
2024/01/26 00:00:44;;;;;;;;;;;;;;;;;;5076672;28;20470;-71
2024/01/26 00:03:10;;;;;;;;;;;;;;;;;;5093019;28;20261;-70
2024/01/26 00:05:36;;;;;;;;;;;;;;;;;;5093514;28;19912;-70
2024/01/26 00:08:02;;;;;;;;;;;;;;;;;;5093451;28;19915;-71
2024/01/26 00:10:28;;;;;;;;;;;;;;;;;;5093069;28;19908;-71
2024/01/26 00:12:54;;;;;;;;;;;;;;;;;;5093400;28;19951;-70
2024/01/26 00:15:20;;;;;;;;;;;;;;;;;;5092876;28;19912;-71
2024/01/26 00:17:46;;;;;;;;;;;;;;;;;;5093365;28;20025;-70
2024/01/26 00:20:12;;;;;;;;;;;;;;;;;;5093347;28;19908;-71
2024/01/26 00:22:38;;;;;;;;;;;;;;;;;;5091541;28;20304;-71
2024/01/26 00:25:04;;;;;;;;;;;;;;;;;;5093364;28;19914;-71
2024/01/26 00:27:30;;;;;;;;;;;;;;;;;;5095694;28;20292;-71
2024/01/26 00:29:56;;;;;;;;;;;;;;;;;;5096611;28;19912;-71
2024/01/26 00:32:22;;;;;;;;;;;;;;;;;;5096862;28;19916;-71
2024/01/26 00:34:48;;;;;;;;;;;;;;;;;;5096664;28;20014;-72
2024/01/26 00:37:14;;;;;;;;;;;;;;;;;;5096304;28;19909;-70
2024/01/26 00:39:40;;;;;;;;;;;;;;;;;;5096742;28;19909;-71
2024/01/26 00:42:06;;;;;;;;;;;;;;;;;;5095254;28;19923;-72
2024/01/26 00:44:32;;;;;;;;;;;;;;;;;;5096265;28;19908;-69
2024/01/26 00:46:58;;;;;;;;;;;;;;;;;;5096476;28;19915;-70
2024/01/26 00:49:24;;;;;;;;;;;;;;;;;;5096539;28;19908;-70
2024/01/26 00:51:50;;;;;;;;;;;;;;;;;;5094799;28;20299;-70
2024/01/26 00:54:16;;;;;;;;;;;;;;;;;;5096383;28;19935;-70
2024/01/26 00:56:42;;;;;;;;;;;;;;;;;;5096661;28;19908;-70
2024/01/26 00:59:08;;;;;;;;;;;;;;;;;;5094593;28;19908;-70
2024/01/26 01:01:34;;;;;;;;;;;;;;;;;;5095953;28;19927;-70
2024/01/26 01:04:00;;;;;;;;;;;;;;;;;;5096205;28;19947;-70
2024/01/26 01:06:26;;;;;;;;;;;;;;;;;;5095711;28;20025;-70
2024/01/26 01:08:52;;;;;;;;;;;;;;;;;;5077997;28;19916;-70
2024/01/26 01:11:18;;;;;;;;;;;;;;;;;;5096014;28;20302;-70
2024/01/26 01:13:45;;;;;;;;;;;;;;;;;;5095613;28;19931;-70
2024/01/26 01:16:12;;;;;;;;;;;;;;;;;;5095899;28;19908;-69
2024/01/26 01:18:38;;;;;;;;;;;;;;;;;;5095432;28;20380;-70
2024/01/26 01:21:04;;;;;;;;;;;;;;;;;;5096466;28;19908;-69
2024/01/26 01:23:30;;;;;;;;;;;;;;;;;;5095694;28;20361;-69
2024/01/26 01:25:56;;;;;;;;;;;;;;;;;;5095379;28;20280;-70
2024/01/26 01:28:22;;;;;;;;;;;;;;;;;;5095675;28;19963;-70
2024/01/26 01:30:48;;;;;;;;;;;;;;;;;;5077598;28;19991;-70
2024/01/26 01:33:14;;;;;;;;;;;;;;;;;;5095288;28;20435;-70
2024/01/26 01:35:40;;;;;;;;;;;;;;;;;;5095609;28;19916;-70
2024/01/26 01:38:06;;;;;;;;;;;;;;;;;;5077217;28;19912;-70
2024/01/26 01:40:32;;;;;;;;;;;;;;;;;;5095074;28;19999;-70
2024/01/26 01:42:58;;;;;;;;;;;;;;;;;;5095551;28;19916;-70
2024/01/26 01:45:24;;;;;;;;;;;;;;;;;;5095366;28;20395;-71
2024/01/26 01:47:50;;;;;;;;;;;;;;;;;;5094808;28;19950;-70
2024/01/26 01:50:16;;;;;;;;;;;;;;;;;;5095248;28;19951;-70
2024/01/26 01:52:42;;;;;;;;;;;;;;;;;;5095445;28;20421;-71
2024/01/26 01:55:08;;;;;;;;;;;;;;;;;;5094892;28;19914;-71
2024/01/26 01:57:34;;;;;;;;;;;;;;;;;;5077040;28;20015;-71
2024/01/26 02:00:01;;;;;;;;;;;;;;;;;;5095412;28;19908;-71
2024/01/26 02:02:27;;;;;;;;;;;;;;;;;;5094409;28;19955;-71
2024/01/26 02:04:53;;;;;;;;;;;;;;;;;;5095162;28;19909;-71
2024/01/26 02:07:19;;;;;;;;;;;;;;;;;;5094923;28;19908;-71
2024/01/26 02:09:45;;;;;;;;;;;;;;;;;;5094558;28;20380;-71
2024/01/26 02:12:11;;;;;;;;;;;;;;;;;;5095213;28;19908;-71
2024/01/26 02:14:37;;;;;;;;;;;;;;;;;;5094820;28;19908;-71
2024/01/26 02:17:03;;;;;;;;;;;;;;;;;;5076227;28;20003;-71
2024/01/26 02:19:29;;;;;;;;;;;;;;;;;;5076506;28;19909;-71
2024/01/26 02:21:55;;;;;;;;;;;;;;;;;;5094164;28;20090;-71
2024/01/26 02:24:21;;;;;;;;;;;;;;;;;;5094631;28;19912;-71
2024/01/26 02:26:47;;;;;;;;;;;;;;;;;;5094646;28;19908;-71
2024/01/26 02:29:13;;;;;;;;;;;;;;;;;;5094086;28;19912;-71
2024/01/26 02:31:39;;;;;;;;;;;;;;;;;;5094725;28;20253;-71
2024/01/26 02:34:06;;;;;;;;;;;;;;;;;;5095027;28;19915;-71
2024/01/26 02:36:32;;;;;;;;;;;;;;;;;;5094365;28;19966;-71
2024/01/26 02:38:58;;;;;;;;;;;;;;;;;;5094576;28;19946;-71
2024/01/26 02:41:24;;;;;;;;;;;;;;;;;;5094352;28;19909;-71
2024/01/26 02:43:50;;;;;;;;;;;;;;;;;;5075734;28;19923;-71
2024/01/26 02:46:16;;;;;;;;;;;;;;;;;;5076126;28;19908;-71
2024/01/26 02:48:42;;;;;;;;;;;;;;;;;;5093748;28;19908;-71
2024/01/26 02:51:08;;;;;;;;;;;;;;;;;;5093885;28;19908;-71
2024/01/26 02:53:34;;;;;;;;;;;;;;;;;;5094198;28;19999;-71
2024/01/26 02:56:00;;;;;;;;;;;;;;;;;;5076357;28;19991;-71
2024/01/26 02:58:26;;;;;;;;;;;;;;;;;;5093985;28;19908;-71
2024/01/26 03:00:52;;;;;;;;;;;;;;;;;;5093862;28;19920;-71
2024/01/26 03:03:18;;;;;;;;;;;;;;;;;;5094438;28;20391;-71
2024/01/26 03:05:44;;;;;;;;;;;;;;;;;;5093596;28;19939;-71
2024/01/26 03:08:10;;;;;;;;;;;;;;;;;;5094317;28;19908;-71
2024/01/26 03:10:36;;;;;;;;;;;;;;;;;;5094001;28;19991;-71
2024/01/26 03:13:02;;;;;;;;;;;;;;;;;;5093577;28;19915;-71
2024/01/26 03:15:28;;;;;;;;;;;;;;;;;;5093907;28;19908;-71
2024/01/26 03:17:54;;;;;;;;;;;;;;;;;;5093848;28;19914;-71
2024/01/26 03:20:20;;;;;;;;;;;;;;;;;;5093515;28;19908;-73
2024/01/26 03:22:46;;;;;;;;;;;;;;;;;;5093817;28;20395;-71
2024/01/26 03:25:12;;;;;;;;;;;;;;;;;;5093455;28;19977;-71
2024/01/26 03:27:38;;;;;;;;;;;;;;;;;;5093822;28;20348;-71
2024/01/26 03:30:04;;;;;;;;;;;;;;;;;;5093809;28;19915;-71
2024/01/26 03:32:30;;;;;;;;;;;;;;;;;;5093410;28;19947;-72
2024/01/26 03:34:56;;;;;;;;;;;;;;;;;;5093731;28;19912;-72
2024/01/26 03:37:25;;;;;;;;;;;;;;;;;;5093731;28;19931;-71
2024/01/26 03:39:51;;;;;;;;;;;;;;;;;;5093417;28;20349;-72
2024/01/26 03:42:17;;;;;;;;;;;;;;;;;;5094223;28;20015;-71
2024/01/26 03:44:42;;;;;;;;;;;;;;;;;;5075533;28;20292;-70
2024/01/26 03:47:08;;;;;;;;;;;;;;;;;;5093376;28;19916;-72
2024/01/26 03:49:35;;;;;;;;;;;;;;;;;;5093790;28;19909;-71
2024/01/26 03:52:01;;;;;;;;;;;;;;;;;;5093576;28;19908;-71
2024/01/26 03:54:27;;;;;;;;;;;;;;;;;;5093345;28;20368;-71
2024/01/26 03:56:53;;;;;;;;;;;;;;;;;;5093514;28;19909;-71
2024/01/26 03:59:19;;;;;;;;;;;;;;;;;;5093465;28;19908;-72
2024/01/26 04:01:45;;;;;;;;;;;;;;;;;;5095617;28;19931;-71
2024/01/26 04:04:11;;;;;;;;;;;;;;;;;;5097349;28;19916;-71
2024/01/26 04:06:37;;;;;;;;;;;;;;;;;;5097881;28;19915;-72
2024/01/26 04:09:03;;;;;;;;;;;;;;;;;;5096858;28;19907;-72
2024/01/26 04:11:29;;;;;;;;;;;;;;;;;;5097342;28;20372;-73
2024/01/26 04:13:55;;;;;;;;;;;;;;;;;;5097217;28;20280;-71
2024/01/26 04:16:21;;;;;;;;;;;;;;;;;;5096727;28;19912;-71
2024/01/26 04:18:47;;;;;;;;;;;;;;;;;;5097102;28;19908;-71
2024/01/26 04:21:13;;;;;;;;;;;;;;;;;;5097028;28;19940;-71
2024/01/26 04:23:39;;;;;;;;;;;;;;;;;;5096545;28;20009;-71
2024/01/26 04:26:05;;;;;;;;;;;;;;;;;;5097086;28;19908;-71
2024/01/26 04:28:30;;;;;;;;;;;;;;;;;;5096494;28;19909;-71
2024/01/26 04:30:56;;;;;;;;;;;;;;;;;;5096893;28;19914;-71
2024/01/26 04:33:22;;;;;;;;;;;;;;;;;;5096831;28;20386;-71
2024/01/26 04:35:48;;;;;;;;;;;;;;;;;;5096330;28;20368;-72
2024/01/26 04:38:14;;;;;;;;;;;;;;;;;;5096725;28;19952;-72
2024/01/26 04:40:40;;;;;;;;;;;;;;;;;;5097021;28;19908;-72
2024/01/26 04:43:06;;;;;;;;;;;;;;;;;;5096138;28;19982;-72
2024/01/26 04:45:32;;;;;;;;;;;;;;;;;;5096659;28;19912;-72
2024/01/26 04:47:58;;;;;;;;;;;;;;;;;;5096511;28;19916;-72
2024/01/26 04:50:24;;;;;;;;;;;;;;;;;;5077945;28;20333;-72
2024/01/26 04:52:52;;;;;;;;;;;;;;;;;;5096420;28;20283;-72
2024/01/26 04:55:18;;;;;;;;;;;;;;;;;;5096357;28;20365;-70
2024/01/26 04:57:44;;;;;;;;;;;;;;;;;;5096149;28;19953;-71
2024/01/26 05:00:10;;;;;;;;;;;;;;;;;;5096262;28;19990;-71
2024/01/26 05:02:36;;;;;;;;;;;;;;;;;;5096694;28;19931;-71
2024/01/26 05:05:02;;;;;;;;;;;;;;;;;;5095913;28;19908;-70
2024/01/26 05:07:28;;;;;;;;;;;;;;;;;;5096123;28;20041;-70
2024/01/26 05:09:54;;;;;;;;;;;;;;;;;;5078056;28;19916;-70
2024/01/26 05:12:20;;;;;;;;;;;;;;;;;;5095185;28;20408;-70
2024/01/26 05:14:46;;;;;;;;;;;;;;;;;;5077864;28;19912;-70
2024/01/26 05:17:12;;;;;;;;;;;;;;;;;;5095983;28;19930;-70
2024/01/26 05:19:38;;;;;;;;;;;;;;;;;;5095455;28;19908;-70
2024/01/26 05:22:04;;;;;;;;;;;;;;;;;;5095876;28;20296;-70
2024/01/26 05:24:30;;;;;;;;;;;;;;;;;;5095835;28;19991;-71
2024/01/26 05:26:56;;;;;;;;;;;;;;;;;;5095644;28;19912;-71
2024/01/26 05:29:22;;;;;;;;;;;;;;;;;;5095692;28;19908;-71
2024/01/26 05:31:48;;;;;;;;;;;;;;;;;;5095240;28;19908;-71
2024/01/26 05:34:14;;;;;;;;;;;;;;;;;;5095825;28;19915;-71
2024/01/26 05:36:41;;;;;;;;;;;;;;;;;;5095831;28;19912;-71
2024/01/26 05:39:07;;;;;;;;;;;;;;;;;;5076968;28;19908;-71
2024/01/26 05:41:33;;;;;;;;;;;;;;;;;;5095416;28;19915;-71
2024/01/26 05:43:59;;;;;;;;;;;;;;;;;;5077295;28;19908;-71
2024/01/26 05:46:25;;;;;;;;;;;;;;;;;;5094979;28;19908;-71
2024/01/26 05:48:50;;;;;;;;;;;;;;;;;;5077238;28;19915;-71
2024/01/26 05:51:16;;;;;;;;;;;;;;;;;;5095538;28;19908;-71
2024/01/26 05:53:42;;;;;;;;;;;;;;;;;;5094893;28;19908;-70
2024/01/26 05:56:08;;;;;;;;;;;;;;;;;;5095161;28;19915;-70
2024/01/26 05:58:34;;;;;;;;;;;;;;;;;;5095106;28;19908;-70
2024/01/26 06:01:00;;;;;;;;;;;;;;;;;;5094744;28;19970;-71
2024/01/26 06:03:26;;;;;;;;;;;;;;;;;;5094990;28;19916;-70
2024/01/26 06:05:52;;;;;;;;;;;;;;;;;;5061610;28;19944;-69
2024/01/26 06:08:18;;;;;;;;;;;;;;;;;;5056206;28;19987;-66
2024/01/26 06:10:44;;;;;;;;;;;;;;;;;;5074547;28;19943;-67
2024/01/26 06:13:10;;;;;;;;;;;;;;;;;;5074247;28;19908;-69
2024/01/26 06:15:36;;;;;;;;;;;;;;;;;;5074180;28;19947;-69
2024/01/26 06:18:03;;;;;;;;;;;;;;;;;;5074531;28;19981;-69
2024/01/26 06:20:31;;;;;;;;;;;;;;;;;;5072832;28;19908;-70
2024/01/26 06:22:57;;;;;;;;;;;;;;;;;;5073785;28;19920;-69
2024/01/26 06:25:23;;;;;;;;;;;;;;;;;;5073555;28;19915;-69
2024/01/26 06:27:49;;;;;;;;;;;;;;;;;;5052382;28;20003;-70
2024/01/26 06:30:15;;;;;;;;;;;;;;;;;;5071165;28;19923;-69
2024/01/26 06:32:42;;;;;;;;;;;;;;;;;;5058658;28;20007;-69
2024/01/26 06:35:08;;;;;;;;;;;;;;;;;;5067593;28;20388;-68
2024/01/26 06:37:34;;;;;;;;;;;;;;;;;;5074362;28;19919;-68
2024/01/26 06:40:00;;;;;;;;;;;;;;;;;;5066202;28;19913;-69
2024/01/26 06:42:26;;;;;;;;;;;;;;;;;;5050195;28;20045;-69
2024/01/26 06:44:52;;;;;;;;;;;;;;;;;;5068834;28;19916;-68
2024/01/26 06:47:19;;;;;;;;;;;;;;;;;;5070528;28;21297;-69
2024/01/26 06:49:45;;;;;;;;;;;;;;;;;;5069807;28;19947;-67
2024/01/26 06:52:11;;;;;;;;;;;;;;;;;;5065493;28;19951;-68
2024/01/26 06:54:40;;;;;;;;;;;;;;;;;;5073209;28;19909;-68
2024/01/26 06:57:06;;;;;;;;;;;;;;;;;;5068926;28;19916;-69
2024/01/26 06:59:32;;;;;;;;;;;;;;;;;;5070914;28;20007;-68
2024/01/26 07:01:58;;;;;;;;;;;;;;;;;;5097763;28;20428;-68
2024/01/26 07:04:24;;;;;;;;;;;;;;;;;;5110830;28;19916;-69
2024/01/26 07:06:50;;;;;;;;;;;;;;;;;;5110817;28;20007;-69
2024/01/26 07:09:16;;;;;;;;;;;;;;;;;;5106097;28;19920;-68
2024/01/26 07:11:42;;;;;;;;;;;;;;;;;;5098116;28;19958;-69
2024/01/26 07:14:09;;;;;;;;;;;;;;;;;;5104828;28;19919;-68
2024/01/26 07:16:35;;;;;;;;;;;;;;;;;;5095974;28;19963;-69
2024/01/26 07:19:05;;;;;;;;;;;;;;;;;;5104531;28;19973;-67
2024/01/26 07:21:31;;;;;;;;;;;;;;;;;;5110038;28;19916;-67
2024/01/26 07:23:58;;;;;;;;;;;;;;;;;;5106857;28;19999;-69
2024/01/26 07:26:25;;;;;;;;;;;;;;;;;;5102708;28;19911;-69
2024/01/26 07:28:51;;;;;;;;;;;;;;;;;;5101058;28;20017;-69
2024/01/26 07:31:17;;;;;;;;;;;;;;;;;;5081132;28;19990;-71
2024/01/26 07:33:43;;;;;;;;;;;;;;;;;;5082247;28;19919;-69
2024/01/26 07:36:10;;;;;;;;;;;;;;;;;;5099782;28;19995;-69
2024/01/26 07:38:36;;;;;;;;;;;;;;;;;;5095681;28;20640;-69
2024/01/26 07:41:01;;;;;;;;;;;;;;;;;;5098233;28;19912;-68
2024/01/26 07:43:27;;;;;;;;;;;;;;;;;;5106741;28;20052;-68
2024/01/26 07:45:53;;;;;;;;;;;;;;;;;;5098929;28;20399;-69
2024/01/26 07:48:19;;;;;;;;;;;;;;;;;;5091868;28;20755;-69
2024/01/26 07:50:45;;;;;;;;;;;;;;;;;;5091646;28;19998;-71
2024/01/26 07:53:12;;;;;;;;;;;;;;;;;;5095150;28;19918;-69
2024/01/26 07:55:38;;;;;;;;;;;;;;;;;;5104648;28;20010;-68
2024/01/26 07:58:04;;;;;;;;;;;;;;;;;;5077352;28;19957;-68
2024/01/26 08:00:30;;;;;;;;;;;;;;;;;;5090799;28;19916;-68
2024/01/26 08:02:56;;;;;;;;;;;;;;;;;;5070978;28;19925;-68
2024/01/26 08:05:22;;;;;;;;;;;;;;;;;;5072109;28;20383;-69
2024/01/26 08:07:48;;;;;;;;;;;;;;;;;;5072544;28;20284;-68
2024/01/26 08:10:13;;;;;;;;;;;;;;;;;;5074110;28;19912;-69
2024/01/26 08:12:42;;;;;;;;;;;;;;;;;;5075523;28;19991;-68
2024/01/26 08:15:08;;;;;;;;;;;;;;;;;;5074995;28;20441;-67
2024/01/26 08:17:34;;;;;;;;;;;;;;;;;;5073161;28;19916;-68
2024/01/26 08:20:04;;;;;;;;;;;;;;;;;;5057449;28;19915;-68
2024/01/26 08:22:30;;;;;;;;;;;;;;;;;;5074234;28;19924;-66
2024/01/26 08:24:58;;;;;;;;;;;;;;;;;;5060216;28;20386;-70
2024/01/26 08:27:24;;;;;;;;;;;;;;;;;;5064899;28;19912;-68
2024/01/26 08:29:50;;;;;;;;;;;;;;;;;;5072281;28;20261;-66
2024/01/26 08:32:16;;;;;;;;;;;;;;;;;;5074299;28;19916;-67
2024/01/26 08:34:42;;;;;;;;;;;;;;;;;;5073358;28;19923;-67
2024/01/26 08:37:08;;;;;;;;;;;;;;;;;;5074110;28;19913;-66
2024/01/26 08:39:34;;;;;;;;;;;;;;;;;;5073719;28;20073;-67
2024/01/26 08:42:00;;;;;;;;;;;;;;;;;;5074678;28;19920;-66
2024/01/26 08:44:25;;;;;;;;;;;;;;;;;;5074985;28;19999;-68
2024/01/26 08:46:51;;;;;;;;;;;;;;;;;;5072011;28;20042;-70
2024/01/26 08:49:17;;;;;;;;;;;;;;;;;;5072334;28;19908;-70
2024/01/26 08:51:43;;;;;;;;;;;;;;;;;;5055130;28;20451;-68
2024/01/26 08:54:10;;;;;;;;;;;;;;;;;;5069570;28;20034;-69
2024/01/26 08:56:36;;;;;;;;;;;;;;;;;;5068879;28;19920;-68
2024/01/26 08:59:02;;;;;;;;;;;;;;;;;;5069757;28;19912;-68
2024/01/26 09:01:28;;;;;;;;;;;;;;;;;;5072002;28;19924;-68
2024/01/26 09:03:54;;;;;;;;;;;;;;;;;;5091523;28;19955;-68
2024/01/26 09:06:20;;;;;;;;;;;;;;;;;;5091832;28;19915;-69
2024/01/26 09:08:46;;;;;;;;;;;;;;;;;;5090561;28;19999;-68
2024/01/26 09:11:12;;;;;;;;;;;;;;;;;;5083260;28;20325;-68
2024/01/26 09:13:38;;;;;;;;;;;;;;;;;;5090510;28;19908;-67
2024/01/26 09:16:04;;;;;;;;;;;;;;;;;;5090888;28;19961;-68
2024/01/26 09:18:30;;;;;;;;;;;;;;;;;;5088938;28;19908;-71
2024/01/26 09:20:56;;;;;;;;;;;;;;;;;;5090730;28;19923;-69
2024/01/26 09:23:22;;;;;;;;;;;;;;;;;;5088546;28;19924;-68
2024/01/26 09:25:48;;;;;;;;;;;;;;;;;;5089822;28;20394;-67
2024/01/26 09:28:14;;;;;;;;;;;;;;;;;;5087217;28;19912;-68
2024/01/26 09:30:40;;;;;;;;;;;;;;;;;;5091918;28;19912;-69
2024/01/26 09:33:06;;;;;;;;;;;;;;;;;;5092425;28;19947;-68
2024/01/26 09:35:32;;;;;;;;;;;;;;;;;;5091767;28;19919;-68
2024/01/26 09:37:58;;;;;;;;;;;;;;;;;;5091528;28;19999;-70
2024/01/26 09:40:24;;;;;;;;;;;;;;;;;;5091136;28;20325;-68
2024/01/26 09:42:50;;;;;;;;;;;;;;;;;;5089692;28;19916;-69
2024/01/26 09:45:20;;;;;;;;;;;;;;;;;;5088131;28;19919;-69
2024/01/26 09:47:46;;;;;;;;;;;;;;;;;;5078632;28;19951;-68
2024/01/26 09:50:13;;;;;;;;;;;;;;;;;;5090105;28;19959;-69
2024/01/26 09:52:39;;;;;;;;;;;;;;;;;;5082381;28;19908;-68
2024/01/26 09:55:05;;;;;;;;;;;;;;;;;;5080759;28;19920;-69
2024/01/26 09:57:32;;;;;;;;;;;;;;;;;;5091671;28;20305;-69
2024/01/26 09:59:58;;;;;;;;;;;;;;;;;;5092057;28;19911;-68
2024/01/26 10:02:24;;;;;;;;;;;;;;;;;;5089314;28;19920;-69
2024/01/26 10:04:50;;;;;;;;;;;;;;;;;;5092636;28;19923;-68
2024/01/26 10:07:16;;;;;;;;;;;;;;;;;;5093344;28;20478;-69
2024/01/26 10:09:42;;;;;;;;;;;;;;;;;;5091789;28;20588;-69
2024/01/26 10:12:08;;;;;;;;;;;;;;;;;;5091392;28;19920;-67
2024/01/26 10:14:34;;;;;;;;;;;;;;;;;;5090720;28;19924;-67
2024/01/26 10:17:00;;;;;;;;;;;;;;;;;;5093432;28;19915;-68
2024/01/26 10:19:26;;;;;;;;;;;;;;;;;;5091619;28;20363;-70
2024/01/26 10:21:52;;;;;;;;;;;;;;;;;;5104940;28;19908;-67
2024/01/26 10:24:19;;;;;;;;;;;;;;;;;;5104136;28;19952;-66
2024/01/26 10:26:45;;;;;;;;;;;;;;;;;;5085032;28;19938;-68
2024/01/26 10:29:12;;;;;;;;;;;;;;;;;;5091534;28;19908;-67
2024/01/26 10:31:40;;;;;;;;;;;;;;;;;;5092805;28;19916;-67
2024/01/26 10:34:06;;;;;;;;;;;;;;;;;;5093005;28;19916;-67
2024/01/26 10:36:32;;;;;;;;;;;;;;;;;;5091135;28;20333;-66
2024/01/26 10:38:58;;;;;;;;;;;;;;;;;;5090530;28;19912;-68
2024/01/26 10:41:24;;;;;;;;;;;;;;;;;;5091731;28;19918;-67
2024/01/26 10:43:52;;;;;;;;;;;;;;;;;;5089475;28;19916;-67
2024/01/26 10:46:18;;;;;;;;;;;;;;;;;;5090890;28;19912;-68
2024/01/26 10:48:44;;;;;;;;;;;;;;;;;;5090991;28;19912;-68
2024/01/26 10:51:10;;;;;;;;;;;;;;;;;;5092951;28;19912;-67
2024/01/26 10:53:36;;;;;;;;;;;;;;;;;;5085407;28;20359;-68
2024/01/26 10:56:04;;;;;;;;;;;;;;;;;;5084872;28;20001;-70
2024/01/26 10:58:30;;;;;;;;;;;;;;;;;;5088815;28;19999;-68
2024/01/26 11:00:57;;;;;;;;;;;;;;;;;;5088675;28;20067;-68
2024/01/26 11:03:23;;;;;;;;;;;;;;;;;;5089443;28;19923;-69
2024/01/26 11:05:50;;;;;;;;;;;;;;;;;;5089619;28;19912;-68
2024/01/26 11:08:16;;;;;;;;;;;;;;;;;;5091513;28;19951;-69
2024/01/26 11:10:42;;;;;;;;;;;;;;;;;;5092289;28;20394;-67
2024/01/26 11:14:57;;;;;;;;;;;;;;;;;;5087370;27;19920;-69
2024/01/26 11:17:23;;;;;;;;;;;;;;;;;;5088238;28;19940;-68
2024/01/26 11:19:49;;;;;;;;;;;;;;;;;;5088636;28;19908;-68
2024/01/26 11:22:38;;;;;;;;;;;;;;;;;;5087163;27;20589;-67
2024/01/26 11:25:34;;;;;;;;;;;;;;;;;;5086891;27;19916;-68
2024/01/26 11:28:00;;;;;;;;;;;;;;;;;;5086956;28;19920;-69
2024/01/26 11:30:26;;;;;;;;;;;;;;;;;;5087258;28;20531;-67
2024/01/26 11:32:52;;;;;;;;;;;;;;;;;;5085986;28;19912;-67
2024/01/26 11:35:20;;;;;;;;;;;;;;;;;;5087381;28;20399;-67
2024/01/26 11:39:21;;;;;;;;;;;;;;;;;;5087504;27;19917;-67
2024/01/26 11:41:48;;;;;;;;;;;;;;;;;;5088144;28;20572;-68
2024/01/26 11:44:14;;;;;;;;;;;;;;;;;;5089448;28;19908;-68
2024/01/26 11:46:40;;;;;;;;;;;;;;;;;;5088956;28;19909;-68
2024/01/26 11:49:05;;;;;;;;;;;;;;;;;;5088883;28;19909;-66
2024/01/26 11:51:31;;;;;;;;;;;;;;;;;;5088885;28;19959;-68
2024/01/26 11:53:57;;;;;;;;;;;;;;;;;;5089839;28;20360;-68
2024/01/26 11:56:23;;;;;;;;;;;;;;;;;;5089096;28;20344;-67
2024/01/26 11:58:49;;;;;;;;;;;;;;;;;;5088407;28;19916;-68
2024/01/26 12:01:17;;;;;;;;;;;;;;;;;;5090086;28;19919;-68
2024/01/26 12:05:01;;;;;;;;;;;;;;;;;;5090640;27;20286;-66
2024/01/26 12:07:27;;;;;;;;;;;;;;;;;;5089674;28;20027;-70
2024/01/26 12:09:53;;;;;;;;;;;;;;;;;;5090520;28;19915;-69
2024/01/26 12:12:19;;;;;;;;;;;;;;;;;;5089629;28;19951;-68
2024/01/26 12:16:42;;;;;;;;;;;;;;;;;;5089608;27;19927;-67
2024/01/26 12:21:27;;;;;;;;;;;;;;;;;;5122627;27;19915;-68
2024/01/26 12:23:53;;;;;;;;;;;;;;;;;;5131518;27;19918;-66
2024/01/26 12:26:19;;;;;;;;;;;;;;;;;;5127817;27;19911;-66
2024/01/26 12:28:45;;;;;;;;;;;;;;;;;;5109021;28;19930;-65
2024/01/26 12:31:11;;;;;;;;;;;;;;;;;;5109073;28;19908;-70
2024/01/26 12:34:20;;;;;;;;;;;;;;;;;;5090184;27;20376;-68
2024/01/26 12:38:48;;;;;;;;;;;;;;;;;;5070347;28;20395;-66
2024/01/26 12:41:14;;;;;;;;;;;;;;;;;;5068189;28;20003;-68
2024/01/26 12:43:42;;;;;;;;;;;;;;;;;;5070464;28;20377;-68
2024/01/26 12:48:25;;;;;;;;;;;;;;;;;;5088762;27;19922;-67
2024/01/26 12:50:51;;;;;;;;;;;;;;;;;;5088593;28;19936;-67
2024/01/26 12:53:17;;;;;;;;;;;;;;;;;;5088488;28;20371;-67
2024/01/26 12:59:43;;;;;;;;;;;;;;;;;;5089475;27;19919;-68
2024/01/26 13:02:38;;;;;;;;;;;;;;;;;;5089290;28;19912;-68
2024/01/26 13:10:08;;;;;;;;;;;;;;;;;;5090647;27;19927;-68
2024/01/26 13:12:34;;;;;;;;;;;;;;;;;;5091334;28;20312;-69
2024/01/26 13:15:00;;;;;;;;;;;;;;;;;;5091137;28;19987;-68
2024/01/26 13:19:53;;;;;;;;;;;;;;;;;;5091345;27;20390;-70
2024/01/26 13:22:19;;;;;;;;;;;;;;;;;;5091202;28;20011;-69
2024/01/26 13:24:45;;;;;;;;;;;;;;;;;;5090659;28;20414;-69
2024/01/26 13:29:23;;;;;;;;;;;;;;;;;;5090997;27;19917;-68
2024/01/26 13:32:13;;;;;;;;;;;;;;;;;;5090947;27;20292;-68
2024/01/26 13:36:29;;;;;;;;;;;;;;;;;;5152796;27;20370;-68
2024/01/26 13:38:55;;;;;;;;;;;;;;;;;;5152304;27;19917;-69
2024/01/26 13:41:21;;;;;;;;;;;;;;;;;;5133997;27;19930;-71
2024/01/26 13:43:49;;;;;;;;;;;;;;;;;;5152611;27;19943;-69
2024/01/26 13:46:15;;;;;;;;;;;;;;;;;;5152023;27;19990;-70
2024/01/26 13:48:40;;;;;;;;;;;;;;;;;;5152405;27;19969;-70
2024/01/26 13:55:47;;;;;;;;;;;;;;;;;;5091438;27;19912;-69
2024/01/26 13:58:13;;;;;;;;;;;;;;;;;;5091096;28;19913;-71
2024/01/26 14:00:40;;;;;;;;;;;;;;;;;;5089249;28;20010;-72
2024/01/26 14:03:25;;;;;;;;;;;;;;;;;;5091003;27;20372;-70
2024/01/26 14:05:51;;;;;;;;;;;;;;;;;;5090755;28;20007;-71
2024/01/26 14:10:45;;;;;;;;;;;;;;;;;;5070898;28;19927;-71
2024/01/26 14:14:22;;;;;;;;;;;;;;;;;;5151964;27;20006;-71
2024/01/26 14:18:01;;;;;;;;;;;;;;;;;;5091322;27;19917;-74
2024/01/26 14:20:27;;;;;;;;;;;;;;;;;;5090742;28;19940;-70
2024/01/26 14:25:46;;;;;;;;;;;;;;;;;;5091365;27;19923;-74
2024/01/26 14:28:13;;;;;;;;;;;;;;;;;;5090767;28;19912;-71
2024/01/26 14:30:39;;;;;;;;;;;;;;;;;;5089633;28;19991;-71
2024/01/26 14:33:05;;;;;;;;;;;;;;;;;;5090866;28;19962;-72
2024/01/26 14:35:31;;;;;;;;;;;;;;;;;;5090422;28;19909;-73
2024/01/26 14:37:57;;;;;;;;;;;;;;;;;;5091018;28;19961;-73
2024/01/26 14:40:22;;;;;;;;;;;;;;;;;;5090785;28;19947;-74
2024/01/26 14:42:49;;;;;;;;;;;;;;;;;;5090438;28;19915;-71
2024/01/26 14:45:16;;;;;;;;;;;;;;;;;;5090521;28;19923;-72
2024/01/26 14:47:42;;;;;;;;;;;;;;;;;;5091244;28;20384;-73
2024/01/26 14:50:11;;;;;;;;;;;;;;;;;;5090823;28;19962;-73
2024/01/26 14:52:38;;;;;;;;;;;;;;;;;;5090783;28;19908;-74
2024/01/26 14:55:04;;;;;;;;;;;;;;;;;;5088880;28;19931;-74
2024/01/26 14:57:30;;;;;;;;;;;;;;;;;;5090752;28;19937;-74
2024/01/26 14:59:56;;;;;;;;;;;;;;;;;;5089299;28;20412;-74
2024/01/26 15:02:23;;;;;;;;;;;;;;;;;;5090192;28;20280;-74
2024/01/26 15:04:49;;;;;;;;;;;;;;;;;;5089150;28;19924;-73
2024/01/26 15:07:15;;;;;;;;;;;;;;;;;;5090458;28;19957;-73
2024/01/26 15:09:41;;;;;;;;;;;;;;;;;;5089976;28;19916;-73
2024/01/26 15:12:07;;;;;;;;;;;;;;;;;;5090594;28;19934;-73
2024/01/26 15:14:33;;;;;;;;;;;;;;;;;;5090457;28;19947;-73
2024/01/26 15:19:06;;;;;;;;;;;;;;;;;;5091212;28;19916;-73
2024/01/26 15:21:32;;;;;;;;;;;;;;;;;;5091219;28;20372;-73
2024/01/26 15:23:59;;;;;;;;;;;;;;;;;;5092408;28;19916;-73
2024/01/26 15:26:25;;;;;;;;;;;;;;;;;;5091447;28;19999;-73
2024/01/26 15:28:51;;;;;;;;;;;;;;;;;;5091407;28;19940;-73
2024/01/26 15:31:17;;;;;;;;;;;;;;;;;;5090965;28;19955;-74
2024/01/26 15:33:43;;;;;;;;;;;;;;;;;;5091239;28;19955;-74
2024/01/26 15:36:09;;;;;;;;;;;;;;;;;;5091134;28;19954;-74
2024/01/26 15:38:34;;;;;;;;;;;;;;;;;;5090612;28;20327;-74
2024/01/26 15:41:00;;;;;;;;;;;;;;;;;;5091135;28;19931;-74
2024/01/26 15:43:26;;;;;;;;;;;;;;;;;;5091061;28;19916;-74
2024/01/26 15:45:52;;;;;;;;;;;;;;;;;;5090565;28;19908;-74
2024/01/26 15:48:18;;;;;;;;;;;;;;;;;;5090897;28;19915;-74
2024/01/26 15:50:44;;;;;;;;;;;;;;;;;;5091295;28;20361;-74
2024/01/26 15:53:10;;;;;;;;;;;;;;;;;;5090455;28;19909;-74
2024/01/26 15:55:36;;;;;;;;;;;;;;;;;;5090903;28;19916;-74
2024/01/26 15:58:02;;;;;;;;;;;;;;;;;;5090371;28;19955;-75
2024/01/26 16:00:28;;;;;;;;;;;;;;;;;;5091334;28;19909;-74
2024/01/26 16:02:54;;;;;;;;;;;;;;;;;;5092165;28;20346;-73
2024/01/26 16:05:20;;;;;;;;;;;;;;;;;;5090618;28;20360;-74
2024/01/26 16:07:46;;;;;;;;;;;;;;;;;;5089689;28;19912;-73
2024/01/26 16:10:12;;;;;;;;;;;;;;;;;;5091011;28;19908;-74
2024/01/26 16:12:38;;;;;;;;;;;;;;;;;;5090896;28;19908;-74
2024/01/26 16:15:04;;;;;;;;;;;;;;;;;;5089133;28;19908;-75
2024/01/26 16:17:30;;;;;;;;;;;;;;;;;;5097368;28;19935;-74
2024/01/26 16:19:55;;;;;;;;;;;;;;;;;;5091792;28;19969;-74
2024/01/26 16:22:21;;;;;;;;;;;;;;;;;;5092193;28;19915;-74
2024/01/26 16:24:47;;;;;;;;;;;;;;;;;;5110524;28;19912;-74
2024/01/26 16:27:13;;;;;;;;;;;;;;;;;;5109991;28;19908;-74
2024/01/26 16:29:39;;;;;;;;;;;;;;;;;;5101324;28;19995;-75
2024/01/26 16:32:05;;;;;;;;;;;;;;;;;;5096767;28;19930;-75
2024/01/26 16:34:31;;;;;;;;;;;;;;;;;;5096275;28;19908;-75
2024/01/26 16:36:57;;;;;;;;;;;;;;;;;;5096532;28;19962;-75
2024/01/26 16:39:24;;;;;;;;;;;;;;;;;;5096664;28;19947;-75
2024/01/26 16:41:50;;;;;;;;;;;;;;;;;;5096240;28;20417;-75
2024/01/26 16:44:15;;;;;;;;;;;;;;;;;;5078338;28;20006;-74
2024/01/26 16:46:41;;;;;;;;;;;;;;;;;;5078304;28;19916;-73
2024/01/26 16:49:08;;;;;;;;;;;;;;;;;;5096040;28;19908;-74
2024/01/26 16:51:34;;;;;;;;;;;;;;;;;;5096405;28;19908;-73
2024/01/26 16:54:00;;;;;;;;;;;;;;;;;;5096473;28;19914;-74
2024/01/26 16:56:26;;;;;;;;;;;;;;;;;;5095959;28;19913;-74
2024/01/26 16:58:52;;;;;;;;;;;;;;;;;;5096248;28;19922;-74
2024/01/26 17:01:19;;;;;;;;;;;;;;;;;;5095977;28;20477;-74
2024/01/26 17:03:45;;;;;;;;;;;;;;;;;;5096121;28;19912;-74
2024/01/26 17:06:11;;;;;;;;;;;;;;;;;;5078352;28;19916;-73
2024/01/26 17:08:37;;;;;;;;;;;;;;;;;;5077537;28;19908;-74
2024/01/26 17:11:03;;;;;;;;;;;;;;;;;;5095969;28;20276;-74
2024/01/26 17:13:29;;;;;;;;;;;;;;;;;;5096070;28;19922;-73
2024/01/26 17:15:56;;;;;;;;;;;;;;;;;;5077362;28;20322;-73
2024/01/26 17:18:22;;;;;;;;;;;;;;;;;;5077500;28;19975;-73
2024/01/26 17:20:48;;;;;;;;;;;;;;;;;;5077749;28;19947;-73
2024/01/26 17:23:14;;;;;;;;;;;;;;;;;;5077345;28;19915;-73